Time;durP1;ratioP1;P1;durP2;ratioP2;P2;SDS_P1;SDS_P2;PMS_P1;PMS_P2;Temp;Humidity;BMP_temperature;BMP_pressure;BME280_temperature;BME280_humidity;BME280_pressure;Samples;Min_cycle;Max_cycle;Signal;HPM_P1;HPM_P2
2021/10/04 00:02:01;;;;;;;4.25;3.70;;;;;;;5.33;64.98;101064.44;4887225;29;20420;-76
2021/10/04 00:04:30;;;;;;;5.22;3.58;;;;;;;5.29;64.78;101067.25;4887203;29;20091;-75
2021/10/04 00:06:56;;;;;;;4.90;3.83;;;;;;;5.20;64.67;101072.84;4902520;29;20051;-77
2021/10/04 00:09:23;;;;;;;5.15;4.10;;;;;;;5.09;64.96;101050.16;4902865;29;20521;-76
2021/10/04 00:11:49;;;;;;;5.80;3.53;;;;;;;5.18;64.93;101070.22;4902677;29;20090;-76
2021/10/04 00:14:15;;;;;;;7.30;4.22;;;;;;;4.98;64.73;101065.53;4887226;29;20051;-75
2021/10/04 00:16:41;;;;;;;4.18;3.75;;;;;;;5.06;65.01;101074.09;4886847;29;20104;-76
2021/10/04 00:19:07;;;;;;;4.85;3.53;;;;;;;4.87;65.10;101081.72;4902721;29;20055;-76
2021/10/04 00:21:33;;;;;;;5.35;3.58;;;;;;;4.83;65.21;101058.88;4917869;29;20109;-75
2021/10/04 00:23:59;;;;;;;3.90;3.50;;;;;;;4.76;65.58;101064.41;4902480;29;20411;-75
2021/10/04 00:26:25;;;;;;;3.40;3.10;;;;;;;4.73;65.16;101043.28;4902401;29;20044;-76
2021/10/04 00:28:51;;;;;;;6.75;3.38;;;;;;;4.72;65.34;101052.16;4902731;29;20416;-75
2021/10/04 00:31:17;;;;;;;5.15;3.70;;;;;;;4.75;65.01;101065.31;4902509;29;20050;-76
2021/10/04 00:33:43;;;;;;;4.97;3.55;;;;;;;4.68;65.24;101071.72;4887099;29;20048;-76
2021/10/04 00:36:08;;;;;;;4.20;3.05;;;;;;;4.72;65.34;101076.00;4902554;29;20475;-77
2021/10/04 00:38:34;;;;;;;4.55;3.53;;;;;;;4.70;64.60;101072.50;4902466;29;20043;-76
2021/10/04 00:41:00;;;;;;;6.18;4.07;;;;;;;4.56;65.08;101076.44;4886623;29;20203;-76
2021/10/04 00:43:26;;;;;;;6.38;4.00;;;;;;;4.61;65.00;101079.81;4886786;29;20039;-75
2021/10/04 00:45:52;;;;;;;5.97;3.83;;;;;;;4.57;64.76;101062.28;4918050;29;20381;-76
2021/10/04 00:48:18;;;;;;;5.30;4.13;;;;;;;4.52;64.84;101082.72;4886992;29;20048;-77
2021/10/04 00:50:44;;;;;;;5.43;3.60;;;;;;;4.52;64.66;101082.72;4886698;29;20107;-76
2021/10/04 00:53:10;;;;;;;5.53;3.92;;;;;;;4.26;65.05;101064.03;4886734;29;20051;-76
2021/10/04 00:55:37;;;;;;;6.25;4.30;;;;;;;4.28;64.90;101064.84;4904811;29;20044;-75
2021/10/04 00:58:04;;;;;;;6.10;3.80;;;;;;;4.25;65.05;101086.09;4890126;29;20070;-75
2021/10/04 01:00:30;;;;;;;4.90;4.22;;;;;;;4.18;64.86;101068.66;4906044;29;20051;-77
2021/10/04 01:02:56;;;;;;;9.98;4.03;;;;;;;4.13;64.74;101077.56;4905811;29;20482;-76
2021/10/04 01:05:22;;;;;;;5.70;3.60;;;;;;;4.08;63.85;101079.47;4905799;29;20095;-77
2021/10/04 01:07:48;;;;;;;8.10;4.05;;;;;;;3.99;63.33;101063.84;4905725;29;20047;-76
2021/10/04 01:10:14;;;;;;;4.72;4.25;;;;;;;4.09;63.20;101086.50;4889987;29;20138;-75
2021/10/04 01:12:42;;;;;;;7.90;4.78;;;;;;;4.11;62.52;101089.97;4906162;29;20089;-76
2021/10/04 01:15:08;;;;;;;8.75;5.13;;;;;;;4.02;62.45;101092.84;4889575;29;20059;-77
2021/10/04 01:17:35;;;;;;;9.23;5.20;;;;;;;3.91;62.84;101084.31;4906157;29;20135;-77
2021/10/04 01:20:30;;;;;;;5.80;4.45;;;;;;;4.04;62.88;101098.97;4889761;29;20047;-79
2021/10/04 01:22:56;;;;;;;8.43;5.18;;;;;;;4.03;62.14;101106.97;4886675;29;20056;-76
2021/10/04 01:25:22;;;;;;;8.18;4.55;;;;;;;3.95;61.68;101112.44;4906962;29;20061;-76
2021/10/04 01:27:49;;;;;;;4.95;4.00;;;;;;;3.90;62.01;101109.03;4906900;29;20094;-75
2021/10/04 01:30:17;;;;;;;12.98;3.78;;;;;;;3.81;62.41;101120.72;4890425;29;20044;-77
2021/10/04 01:32:43;;;;;;;5.75;4.00;;;;;;;3.56;62.88;101096.59;4890514;29;20047;-77
2021/10/04 01:35:09;;;;;;;5.10;3.80;;;;;;;3.67;62.94;101119.28;4905759;29;20099;-76
2021/10/04 01:37:35;;;;;;;4.07;3.17;;;;;;;3.50;63.30;101102.06;4905397;29;20052;-76
2021/10/04 01:40:01;;;;;;;4.63;3.30;;;;;;;3.39;63.91;101119.94;4889957;29;20455;-77
2021/10/04 01:42:28;;;;;;;3.83;3.47;;;;;;;3.33;63.82;101109.47;4889775;29;20052;-78
2021/10/04 01:44:54;;;;;;;6.53;3.58;;;;;;;3.21;64.12;101109.75;4889294;29;20050;-76
2021/10/04 01:47:20;;;;;;;6.88;3.75;;;;;;;3.06;64.39;101106.53;4888658;29;20047;-77
2021/10/04 01:49:46;;;;;;;6.70;3.38;;;;;;;3.16;64.73;101109.84;4904866;29;20055;-78
2021/10/04 01:52:12;;;;;;;7.07;3.88;;;;;;;3.13;64.45;101105.50;4886270;29;20395;-78
2021/10/04 01:54:39;;;;;;;8.32;3.65;;;;;;;2.95;64.67;101103.25;4886430;29;20484;-78
2021/10/04 01:57:05;;;;;;;4.93;3.90;;;;;;;2.90;64.64;101110.41;4886560;29;20044;-77
2021/10/04 01:59:31;;;;;;;10.98;6.57;;;;;;;2.90;64.56;101107.75;4920077;29;20491;-77
2021/10/04 02:01:57;;;;;;;9.80;7.68;;;;;;;2.89;64.80;101114.78;4905117;29;20050;-78
2021/10/04 02:04:23;;;;;;;8.65;5.40;;;;;;;2.83;65.05;101108.78;4936350;29;20090;-77
2021/10/04 02:06:52;;;;;;;9.35;6.18;;;;;;;2.83;64.85;101125.50;4888989;29;20058;-78
2021/10/04 02:09:18;;;;;;;8.32;7.00;;;;;;;2.80;65.08;101129.97;4936035;29;20050;-77
2021/10/04 02:11:44;;;;;;;8.48;6.80;;;;;;;2.81;64.83;101126.41;4904788;29;20055;-78
2021/10/04 02:14:10;;;;;;;6.80;5.65;;;;;;;2.68;64.87;101136.34;4920153;29;20051;-77
2021/10/04 02:16:36;;;;;;;6.68;5.57;;;;;;;2.62;64.77;101131.16;4904334;29;20479;-79
2021/10/04 02:19:02;;;;;;;9.68;6.70;;;;;;;2.65;65.26;101134.63;4920302;29;20047;-78
2021/10/04 02:21:28;;;;;;;11.98;6.68;;;;;;;2.67;65.06;101138.13;4920000;29;20039;-78
2021/10/04 02:23:54;;;;;;;17.40;7.07;;;;;;;2.65;65.02;101133.75;4920320;29;20043;-78
2021/10/04 02:26:20;;;;;;;11.73;7.68;;;;;;;2.56;64.80;101129.53;4919997;29;20483;-79
2021/10/04 02:28:47;;;;;;;18.92;8.00;;;;;;;2.62;65.19;101142.59;4920321;29;20090;-78
2021/10/04 02:31:12;;;;;;;11.43;8.40;;;;;;;2.65;64.91;101137.25;4918975;29;20039;-79
2021/10/04 02:33:38;;;;;;;10.30;8.60;;;;;;;2.61;65.24;101140.88;4888385;29;20039;-78
2021/10/04 02:36:04;;;;;;;14.82;8.77;;;;;;;2.68;64.77;101142.50;4888366;29;20043;-79
2021/10/04 02:38:30;;;;;;;14.45;9.05;;;;;;;2.70;65.30;101154.78;4888358;29;20051;-78
2021/10/04 02:40:56;;;;;;;10.50;9.40;;;;;;;2.78;64.99;101147.59;4887955;29;20487;-78
2021/10/04 02:43:22;;;;;;;12.90;10.48;;;;;;;2.84;65.15;101136.91;4888231;29;20039;-78
2021/10/04 02:45:48;;;;;;;12.82;9.32;;;;;;;2.92;64.54;101153.47;4888392;29;20098;-78
2021/10/04 02:48:14;;;;;;;14.93;11.18;;;;;;;2.92;64.28;101151.69;4919423;29;20059;-78
2021/10/04 02:50:40;;;;;;;14.02;12.52;;;;;;;2.81;63.96;101143.13;4903867;29;20398;-77
2021/10/04 02:53:06;;;;;;;13.43;12.02;;;;;;;2.85;63.50;101138.66;4919247;29;20102;-79
2021/10/04 02:55:32;;;;;;;10.77;8.52;;;;;;;2.91;63.10;101155.25;4903602;29;20044;-78
2021/10/04 02:57:58;;;;;;;9.57;6.97;;;;;;;2.89;63.35;101166.75;4918555;29;20048;-79
2021/10/04 03:00:25;;;;;;;8.38;6.20;;;;;;;2.87;63.55;101168.56;4919091;29;20051;-77
2021/10/04 03:02:51;;;;;;;8.80;5.00;;;;;;;2.87;63.80;101173.84;4919743;29;20055;-76
2021/10/04 03:05:17;;;;;;;7.30;4.57;;;;;;;3.03;63.39;101174.41;4903229;29;20130;-77
2021/10/04 03:07:42;;;;;;;10.75;5.03;;;;;;;2.93;63.28;101168.41;4919043;29;20069;-75
2021/10/04 03:10:09;;;;;;;8.80;5.55;;;;;;;2.86;63.25;101172.09;4903270;29;20411;-77
2021/10/04 03:12:35;;;;;;;7.53;6.15;;;;;;;2.90;63.46;101174.66;4918859;29;20059;-76
2021/10/04 03:15:01;;;;;;;5.68;5.07;;;;;;;2.96;63.16;101178.94;4934734;29;20047;-78
2021/10/04 03:17:28;;;;;;;8.73;5.20;;;;;;;2.87;63.28;101180.00;4917569;29;20046;-75
2021/10/04 03:19:54;;;;;;;7.40;4.60;;;;;;;2.94;63.24;101180.75;4918636;29;20039;-76
2021/10/04 03:22:20;;;;;;;7.93;3.80;;;;;;;2.92;63.28;101183.41;4918370;29;20047;-75
2021/10/04 03:24:46;;;;;;;7.93;4.68;;;;;;;2.93;62.94;101181.63;4934186;29;20051;-78
2021/10/04 03:27:12;;;;;;;6.35;5.25;;;;;;;2.95;62.87;101193.06;4903149;29;20052;-79
2021/10/04 03:29:38;;;;;;;10.48;5.82;;;;;;;2.84;63.03;101169.47;4903578;29;20047;-78
2021/10/04 03:32:04;;;;;;;7.75;6.63;;;;;;;2.86;63.30;101198.53;4918405;29;20040;-77
2021/10/04 03:34:30;;;;;;;6.93;5.97;;;;;;;2.82;62.94;101178.31;4918677;29;20102;-78
2021/10/04 03:36:58;;;;;;;10.32;6.50;;;;;;;2.92;63.19;101186.03;4917748;29;20040;-78
2021/10/04 03:39:24;;;;;;;9.27;7.47;;;;;;;2.78;63.20;101188.06;4887560;29;20044;-79
2021/10/04 03:41:52;;;;;;;10.13;7.38;;;;;;;2.91;63.23;101192.25;4918278;29;20047;-81
2021/10/04 03:44:18;;;;;;;10.70;7.68;;;;;;;2.94;62.88;101195.72;4901898;29;20440;-78
2021/10/04 03:46:43;;;;;;;11.02;8.70;;;;;;;2.92;63.03;101198.38;4934544;29;20079;-79
2021/10/04 03:49:09;;;;;;;10.98;7.97;;;;;;;2.98;62.71;101203.56;4918559;29;20055;-80
2021/10/04 03:51:36;;;;;;;12.23;8.98;;;;;;;3.12;62.92;101212.09;4918229;29;20055;-78
2021/10/04 03:54:02;;;;;;;12.40;8.45;;;;;;;3.10;62.94;101205.97;4902313;29;20098;-77
2021/10/04 03:56:28;;;;;;;15.85;9.77;;;;;;;3.21;62.49;101212.81;4901884;29;20052;-77
2021/10/04 03:58:54;;;;;;;11.55;9.80;;;;;;;3.04;62.55;101192.00;4886740;29;20043;-77
2021/10/04 04:01:20;;;;;;;13.23;10.10;;;;;;;3.27;62.40;101215.31;4886698;29;20044;-78
2021/10/04 04:03:49;;;;;;;14.90;10.48;;;;;;;3.17;62.38;101225.22;4886373;29;20428;-78
2021/10/04 04:06:15;;;;;;;13.90;9.88;;;;;;;3.16;62.02;101219.06;4902593;29;20134;-77
2021/10/04 04:08:41;;;;;;;15.50;10.35;;;;;;;3.11;62.27;101205.06;4901797;29;20062;-77
2021/10/04 04:11:07;;;;;;;12.75;10.63;;;;;;;3.29;61.91;101229.38;4886408;29;20452;-77
2021/10/04 04:13:33;;;;;;;15.50;11.20;;;;;;;3.27;62.20;101229.44;4886116;29;20050;-77
2021/10/04 04:16:00;;;;;;;12.32;10.25;;;;;;;3.37;62.11;101230.09;4788444;29;2901225;-77
2021/10/04 04:18:26;;;;;;;16.52;10.75;;;;;;;3.33;61.95;101226.63;4887219;29;20095;-76
2021/10/04 04:20:52;;;;;;;13.98;9.60;;;;;;;3.41;62.03;101226.50;4886979;29;20048;-79
2021/10/04 04:23:17;;;;;;;14.82;10.85;;;;;;;3.59;61.59;101212.88;4887176;29;20044;-76
2021/10/04 04:25:43;;;;;;;10.63;9.45;;;;;;;3.74;61.11;101226.69;4887222;29;20483;-76
2021/10/04 04:28:10;;;;;;;14.05;10.00;;;;;;;3.76;60.99;101230.16;4902758;29;20062;-76
2021/10/04 04:30:35;;;;;;;12.82;10.95;;;;;;;3.79;60.94;101230.97;4889583;29;20087;-78
2021/10/04 04:33:01;;;;;;;13.85;11.10;;;;;;;3.91;60.98;101229.81;4906161;29;20043;-77
2021/10/04 04:35:27;;;;;;;14.75;10.40;;;;;;;4.00;60.68;101234.91;4890530;29;20046;-78
2021/10/04 04:37:53;;;;;;;15.77;9.90;;;;;;;4.09;60.36;101229.41;4890362;29;20050;-77
2021/10/04 04:40:19;;;;;;;10.25;8.77;;;;;;;4.07;60.45;101236.53;4890335;29;20126;-76
2021/10/04 04:42:45;;;;;;;15.45;10.45;;;;;;;3.94;60.98;101235.03;4890310;29;20054;-76
2021/10/04 04:45:16;;;;;;;13.25;7.80;;;;;;;3.97;60.68;101227.03;4905923;29;20059;-75
2021/10/04 04:47:42;;;;;;;16.23;7.20;;;;;;;4.02;60.85;101248.09;4890497;29;20050;-76
2021/10/04 04:50:08;;;;;;;12.75;6.05;;;;;;;3.92;60.70;101250.09;4905642;29;20039;-76
2021/10/04 04:52:34;;;;;;;8.82;6.40;;;;;;;3.84;61.29;101257.34;4903871;29;20062;-76
2021/10/04 04:55:00;;;;;;;8.40;5.03;;;;;;;3.84;61.00;101255.56;4903405;29;20055;-77
2021/10/04 04:57:26;;;;;;;8.70;5.90;;;;;;;3.79;61.02;101238.03;4905847;29;20047;-78
2021/10/04 04:59:52;;;;;;;9.23;6.32;;;;;;;3.98;60.87;101247.28;4906273;29;20044;-78
2021/10/04 05:02:19;;;;;;;6.53;5.25;;;;;;;4.10;60.90;101254.97;4888285;29;20421;-79
2021/10/04 05:04:45;;;;;;;8.52;5.97;;;;;;;4.30;59.92;101259.81;4887992;29;20443;-79
2021/10/04 05:07:11;;;;;;;10.07;6.10;;;;;;;4.39;60.14;101253.41;4903367;29;20058;-78
2021/10/04 05:09:37;;;;;;;11.73;6.97;;;;;;;4.45;60.33;101257.69;4887747;29;20040;-79
2021/10/04 05:12:03;;;;;;;16.52;7.05;;;;;;;4.51;59.84;101263.69;4887739;29;20043;-78
2021/10/04 05:14:29;;;;;;;11.15;7.82;;;;;;;4.50;60.00;101264.59;4887640;29;20138;-80
2021/10/04 05:16:55;;;;;;;13.18;9.80;;;;;;;4.47;60.19;101245.28;4888148;29;20507;-79
2021/10/04 05:19:21;;;;;;;21.48;10.27;;;;;;;4.69;60.43;101266.81;4889875;29;20051;-76
2021/10/04 05:21:47;;;;;;;11.48;8.23;;;;;;;4.59;60.13;101261.75;4889181;29;20113;-77
2021/10/04 05:24:13;;;;;;;11.25;8.38;;;;;;;4.86;60.32;101254.00;4905615;29;20052;-78
2021/10/04 05:26:40;;;;;;;11.60;7.57;;;;;;;5.08;59.62;101262.28;4889725;29;20044;-76
2021/10/04 05:29:06;;;;;;;16.60;7.40;;;;;;;4.81;59.87;101269.13;4889986;29;20055;-78
2021/10/04 05:31:32;;;;;;;15.77;8.88;;;;;;;5.04;60.27;101256.19;4889500;29;20039;-77
2021/10/04 05:33:58;;;;;;;18.52;7.50;;;;;;;5.44;59.57;101257.72;4889570;29;20118;-78
2021/10/04 05:36:23;;;;;;;13.55;7.32;;;;;;;5.38;58.83;101262.31;4889208;29;20502;-76
2021/10/04 05:38:49;;;;;;;15.32;8.23;;;;;;;5.48;59.26;101275.28;4905129;29;20075;-75
2021/10/04 05:41:15;;;;;;;11.27;7.20;;;;;;;5.66;58.33;101273.91;4904818;29;20051;-76
2021/10/04 05:43:42;;;;;;;11.88;7.45;;;;;;;5.52;58.60;101281.38;4905289;29;20060;-76
2021/10/04 05:46:08;;;;;;;9.27;6.75;;;;;;;5.46;58.80;101263.00;4889585;29;20126;-75
2021/10/04 05:48:36;;;;;;;18.80;6.60;;;;;;;5.68;58.90;101284.47;4904550;29;20087;-77
2021/10/04 05:51:03;;;;;;;11.63;7.05;;;;;;;5.78;58.45;101264.72;4889345;29;20050;-74
2021/10/04 05:53:29;;;;;;;12.30;6.85;;;;;;;5.92;58.03;101269.63;4889320;29;20491;-77
2021/10/04 05:55:55;;;;;;;14.90;7.18;;;;;;;6.06;58.05;101278.94;4904800;29;20051;-76
2021/10/04 05:58:20;;;;;;;10.20;7.00;;;;;;;6.01;57.99;101269.38;4889100;29;20040;-76
2021/10/04 06:00:46;;;;;;;13.60;7.03;;;;;;;6.04;58.36;101274.59;4904401;29;20556;-75
2021/10/04 06:03:12;;;;;;;15.48;7.97;;;;;;;6.17;58.02;101264.44;4904659;29;20118;-76
2021/10/04 06:05:38;;;;;;;13.00;7.68;;;;;;;6.39;57.48;101281.44;4889119;29;20050;-76
2021/10/04 06:08:04;;;;;;;15.50;8.32;;;;;;;6.30;57.57;101289.72;4905196;29;20047;-76
2021/10/04 06:10:30;;;;;;;14.70;7.55;;;;;;;6.40;57.30;101292.97;4904974;29;20043;-78
2021/10/04 06:12:56;;;;;;;11.05;7.43;;;;;;;6.21;58.16;101282.06;4889315;29;20051;-77
2021/10/04 06:15:23;;;;;;;21.35;8.15;;;;;;;6.31;58.05;101294.09;4888875;29;20408;-75
2021/10/04 06:17:49;;;;;;;19.05;9.23;;;;;;;6.55;58.45;101287.16;4905208;29;20043;-77
2021/10/04 06:20:16;;;;;;;17.90;8.98;;;;;;;6.64;57.68;101292.16;4889404;29;20039;-77
2021/10/04 06:22:42;;;;;;;30.50;8.63;;;;;;;6.82;57.47;101294.22;4904686;29;20123;-77
2021/10/04 06:25:09;;;;;;;26.75;8.63;;;;;;;7.19;56.69;101289.44;4904903;29;20411;-78
2021/10/04 06:27:35;;;;;;;28.33;9.13;;;;;;;7.12;55.59;101287.91;4888380;29;20082;-76
2021/10/04 06:30:01;;;;;;;43.50;8.90;;;;;;;7.40;55.03;101298.44;4888477;29;20456;-77
2021/10/04 06:32:28;;;;;;;25.83;7.57;;;;;;;7.20;52.70;101296.50;4904410;29;20491;-76
2021/10/04 06:34:54;;;;;;;27.13;7.95;;;;;;;7.03;52.49;101297.97;4888520;29;20047;-76
2021/10/04 06:37:20;;;;;;;25.10;8.43;;;;;;;7.13;52.94;101279.00;4888308;29;20094;-76
2021/10/04 06:39:46;;;;;;;19.10;7.65;;;;;;;7.40;52.30;101298.44;4888479;29;20451;-75
2021/10/04 06:42:12;;;;;;;25.35;7.63;;;;;;;7.35;52.62;101297.75;4888453;29;20075;-77
2021/10/04 06:44:38;;;;;;;25.45;8.02;;;;;;;7.52;52.47;101298.00;4888315;29;20047;-76
2021/10/04 06:47:04;;;;;;;22.42;8.75;;;;;;;7.96;52.41;101303.47;4903789;29;20052;-76
2021/10/04 06:49:30;;;;;;;33.85;9.65;;;;;;;7.95;52.27;101283.97;4919210;29;20139;-76
2021/10/04 06:51:56;;;;;;;27.70;8.02;;;;;;;8.31;52.11;101299.44;4887156;29;20479;-77
2021/10/04 06:54:22;;;;;;;24.10;7.72;;;;;;;8.41;51.14;101295.53;4888376;29;20145;-77
2021/10/04 06:56:48;;;;;;;22.70;7.72;;;;;;;8.59;51.12;101296.59;4888082;29;20487;-75
2021/10/04 06:59:14;;;;;;;24.42;7.93;;;;;;;8.47;50.83;101307.75;4888138;29;20094;-77
2021/10/04 07:01:40;;;;;;;20.50;7.97;;;;;;;8.61;50.53;101299.19;4887979;29;20134;-76
2021/10/04 07:04:07;;;;;;;16.75;7.63;;;;;;;8.34;50.10;101304.66;4903565;29;20502;-76
2021/10/04 07:06:34;;;;;;;25.10;7.88;;;;;;;8.65;51.18;101295.44;4888208;29;20455;-77
2021/10/04 07:09:00;;;;;;;24.50;7.28;;;;;;;9.12;50.88;101295.28;4888101;29;20179;-77
2021/10/04 07:11:26;;;;;;;11.35;6.78;;;;;;;9.57;49.46;101300.41;4887761;29;20052;-77
2021/10/04 07:13:53;;;;;;;14.65;6.18;;;;;;;9.07;48.60;101305.28;4887399;29;20044;-76
2021/10/04 07:16:19;;;;;;;12.30;6.03;;;;;;;8.81;48.99;101293.91;4902969;29;20091;-76
2021/10/04 07:18:45;;;;;;;13.85;6.25;;;;;;;8.34;49.41;101295.78;4902837;29;20047;-76
2021/10/04 07:21:11;;;;;;;15.23;5.70;;;;;;;8.34;50.40;101309.97;4887368;29;20039;-75
2021/10/04 07:23:38;;;;;;;11.10;5.40;;;;;;;8.37;49.89;101317.00;4902662;29;20044;-75
2021/10/04 07:26:04;;;;;;;9.95;4.57;;;;;;;8.26;49.49;101301.44;4886598;29;20036;-76
2021/10/04 07:28:30;;;;;;;9.82;4.90;;;;;;;8.57;49.94;101321.56;4887033;29;20497;-77
2021/10/04 07:30:58;;;;;;;8.07;4.60;;;;;;;8.71;49.15;101316.53;4902517;29;20136;-77
2021/10/04 07:33:24;;;;;;;10.80;5.00;;;;;;;9.06;49.59;101322.19;4903011;29;20055;-76
2021/10/04 07:35:55;;;;;;;16.00;5.40;;;;;;;8.93;48.23;101314.72;4887414;29;20054;-76
2021/10/04 07:38:22;;;;;;;8.05;5.22;;;;;;;8.64;49.12;101317.72;4887858;29;20094;-77
2021/10/04 07:40:48;;;;;;;12.80;4.90;;;;;;;8.79;49.31;101317.09;4902223;29;20392;-75
2021/10/04 07:43:14;;;;;;;15.70;4.53;;;;;;;8.91;48.71;101305.03;4887010;29;20094;-77
2021/10/04 07:45:40;;;;;;;9.50;4.97;;;;;;;8.68;48.75;101303.31;4902389;29;20058;-76
2021/10/04 07:48:06;;;;;;;10.80;5.85;;;;;;;8.73;49.38;101322.69;4902742;29;20070;-76
2021/10/04 07:50:32;;;;;;;5.43;4.40;;;;;;;9.02;49.11;101318.78;4887637;29;20487;-76
2021/10/04 07:52:58;;;;;;;6.57;4.13;;;;;;;9.11;48.85;101317.56;4887256;29;20154;-77
2021/10/04 07:55:25;;;;;;;6.50;4.00;;;;;;;9.19;48.37;101324.31;4902668;29;20483;-77
2021/10/04 07:57:51;;;;;;;13.57;5.60;;;;;;;9.11;47.88;101317.56;4902307;29;20055;-77
2021/10/04 08:00:18;;;;;;;10.25;4.38;;;;;;;8.88;47.60;101319.41;4902305;29;20048;-76
2021/10/04 08:02:44;;;;;;;6.65;4.57;;;;;;;9.42;48.40;101304.63;4902412;29;20078;-76
2021/10/04 08:05:11;;;;;;;9.38;4.70;;;;;;;9.97;47.16;101304.81;4902100;29;20431;-76
2021/10/04 08:07:37;;;;;;;9.40;4.20;;;;;;;10.27;44.39;101311.47;4886711;29;20054;-75
2021/10/04 08:10:03;;;;;;;7.40;3.75;;;;;;;10.40;44.92;101316.19;4886839;29;20040;-77
2021/10/04 08:12:29;;;;;;;10.02;4.10;;;;;;;10.69;43.46;101308.56;4886633;29;20125;-77
2021/10/04 08:14:55;;;;;;;8.25;4.38;;;;;;;10.18;43.50;101323.44;4902096;29;20055;-77
2021/10/04 08:17:22;;;;;;;11.90;4.43;;;;;;;9.89;43.95;101312.31;4886651;29;20039;-76
2021/10/04 08:19:48;;;;;;;13.05;6.18;;;;;;;10.02;44.43;101325.09;4902056;29;20054;-75
2021/10/04 08:22:14;;;;;;;20.35;6.38;;;;;;;9.87;44.49;101330.19;4886423;29;20039;-76
2021/10/04 08:24:40;;;;;;;23.42;5.80;;;;;;;9.56;44.70;101313.84;4902201;29;20541;-76
2021/10/04 08:27:05;;;;;;;17.00;5.93;;;;;;;9.37;44.90;101336.00;4902082;29;20083;-77
2021/10/04 08:29:31;;;;;;;19.20;6.47;;;;;;;9.39;45.13;101334.09;4902340;29;20483;-75
2021/10/04 08:31:57;;;;;;;22.05;6.28;;;;;;;9.17;45.40;101315.47;4886786;29;20043;-77
2021/10/04 08:34:23;;;;;;;30.10;7.60;;;;;;;9.18;45.89;101335.06;4901995;29;20419;-77
2021/10/04 08:36:49;;;;;;;18.83;5.90;;;;;;;8.89;45.70;101331.78;4902043;29;20618;-77
2021/10/04 08:39:15;;;;;;;30.40;7.05;;;;;;;9.02;45.84;101333.94;4886800;29;20048;-75
2021/10/04 08:41:41;;;;;;;32.30;7.03;;;;;;;9.32;45.36;101345.13;4886694;29;20142;-76
2021/10/04 08:44:09;;;;;;;12.13;4.90;;;;;;;9.47;44.02;101320.44;4902262;29;20130;-77
2021/10/04 08:46:41;;;;;;;15.32;5.50;;;;;;;9.48;44.78;101328.38;4902131;29;20058;-75
2021/10/04 08:49:08;;;;;;;15.80;5.18;;;;;;;9.82;45.24;101342.91;4902444;29;20047;-76
2021/10/04 08:51:34;;;;;;;17.88;5.25;;;;;;;9.92;44.03;101343.34;4902010;29;20047;-77
2021/10/04 08:54:01;;;;;;;14.10;5.40;;;;;;;9.57;44.17;101326.25;4901993;29;20047;-76
2021/10/04 08:56:27;;;;;;;29.25;5.80;;;;;;;9.44;45.05;101352.59;4902258;29;20554;-76
2021/10/04 08:58:53;;;;;;;10.35;5.70;;;;;;;9.17;44.89;101333.28;4886500;29;20039;-76
2021/10/04 09:01:22;;;;;;;17.90;5.57;;;;;;;9.32;45.67;101353.97;4886812;29;20036;-76
2021/10/04 09:03:57;;;;;;;25.15;6.43;;;;;;;9.16;44.98;101340.44;4886406;29;20098;-75
2021/10/04 09:06:39;;;;;;;24.38;5.90;;;;;;;9.31;44.60;101356.72;4886396;29;20467;-76
2021/10/04 09:09:12;;;;;;;14.15;5.18;;;;;;;9.34;45.12;101351.28;4902655;29;20055;-77
2021/10/04 09:11:39;;;;;;;21.95;5.15;;;;;;;9.65;45.55;101357.00;4917657;29;20058;-76
2021/10/04 09:14:16;;;;;;;9.50;4.47;;;;;;;9.83;43.36;101346.44;4901462;29;20531;-75
2021/10/04 09:16:56;;;;;;;14.95;4.80;;;;;;;9.95;43.75;101352.09;4904989;29;20075;-76
2021/10/04 09:19:24;;;;;;;14.63;4.80;;;;;;;9.79;43.19;101353.72;4889597;29;20051;-76
2021/10/04 09:22:09;;;;;;;7.93;4.88;;;;;;;10.05;44.17;101349.88;4905650;29;20171;-77
2021/10/04 09:24:41;;;;;;;16.00;4.45;;;;;;;9.70;45.04;101359.47;4920968;29;20423;-76
2021/10/04 09:27:26;;;;;;;8.77;4.53;;;;;;;9.49;46.38;101362.16;4905551;29;20047;-76
2021/10/04 09:29:52;;;;;;;9.32;4.13;;;;;;;9.87;45.93;101356.91;4905085;29;20098;-75
2021/10/04 09:32:33;;;;;;;16.58;4.97;;;;;;;10.33;44.55;101360.19;4904762;29;20069;-75
2021/10/04 09:35:21;;;;;;;14.52;4.40;;;;;;;10.23;42.39;101358.84;4921301;29;20044;-77
2021/10/04 09:37:49;;;;;;;16.77;4.78;;;;;;;9.58;43.24;101370.69;4904324;29;20507;-78
2021/10/04 09:40:23;;;;;;;8.23;4.20;;;;;;;9.33;43.32;101373.56;4889037;29;20487;-77
2021/10/04 09:42:49;;;;;;;22.63;4.85;;;;;;;9.54;43.39;101363.75;4904484;29;20087;-77
2021/10/04 09:45:15;;;;;;;10.38;4.45;;;;;;;9.52;43.48;101361.16;4889474;29;20070;-76
2021/10/04 09:47:42;;;;;;;18.55;5.18;;;;;;;9.64;42.54;101373.97;4904495;29;20048;-77
2021/10/04 09:50:11;;;;;;;12.68;4.47;;;;;;;9.55;42.33;101370.81;4889455;29;20039;-77
2021/10/04 09:52:52;;;;;;;30.65;4.95;;;;;;;9.32;42.73;101380.69;4889037;29;20205;-76
2021/10/04 09:55:33;;;;;;;12.27;4.47;;;;;;;9.50;43.03;101365.69;4890240;29;20046;-77
2021/10/04 09:58:14;;;;;;;8.23;4.18;;;;;;;10.02;42.46;101367.84;4903907;29;20055;-78
2021/10/04 10:00:56;;;;;;;11.95;4.15;;;;;;;10.32;40.32;101374.50;4889402;29;20134;-75
2021/10/04 10:03:28;;;;;;;11.65;3.90;;;;;;;9.68;40.52;101358.69;4904168;29;20059;-76
2021/10/04 10:05:58;;;;;;;9.25;3.97;;;;;;;9.49;40.97;101383.50;4904789;29;20040;-77
2021/10/04 10:08:26;;;;;;;6.35;3.50;;;;;;;9.42;41.21;101381.16;4904847;29;20058;-77
2021/10/04 10:10:54;;;;;;;8.07;3.60;;;;;;;9.45;41.72;101381.03;4904290;29;20054;-76
2021/10/04 10:13:22;;;;;;;8.40;3.30;;;;;;;9.60;41.66;101376.84;4903943;29;20043;-76
2021/10/04 10:16:05;;;;;;;8.75;3.22;;;;;;;9.78;40.60;101377.81;4888379;29;20059;-76
2021/10/04 10:18:53;;;;;;;7.38;3.08;;;;;;;9.35;40.81;101380.56;4903896;29;20526;-75
2021/10/04 10:21:23;;;;;;;10.25;3.28;;;;;;;8.96;42.07;101393.75;4919997;29;20051;-76
2021/10/04 10:23:53;;;;;;;20.50;3.35;;;;;;;8.90;42.30;101392.19;4888472;29;20035;-75
2021/10/04 10:26:41;;;;;;;5.63;3.33;;;;;;;9.34;43.14;101389.50;4904175;29;20043;-77
2021/10/04 10:29:17;;;;;;;7.27;3.40;;;;;;;9.73;42.38;101389.56;4903533;29;20051;-77
2021/10/04 10:31:52;;;;;;;5.80;3.28;;;;;;;9.67;41.78;101386.31;4903602;29;20040;-77
2021/10/04 10:34:24;;;;;;;9.10;3.70;;;;;;;9.70;41.44;101380.81;4903394;29;20089;-75
2021/10/04 10:37:03;;;;;;;8.23;3.28;;;;;;;9.56;39.56;101377.91;4919691;29;20079;-76
2021/10/04 10:39:52;;;;;;;8.47;3.57;;;;;;;9.44;40.37;101396.19;4919592;29;20075;-76
2021/10/04 10:42:34;;;;;;;10.00;3.42;;;;;;;9.50;41.25;101403.06;4903190;29;20287;-76
2021/10/04 10:45:02;;;;;;;10.57;3.72;;;;;;;9.88;40.75;101396.03;4903895;29;20098;-75
2021/10/04 10:47:37;;;;;;;5.28;2.22;;;;;;;9.65;39.55;101350.78;4903376;29;20054;-76
2021/10/04 10:50:08;;;;;;;3.70;3.05;;;;;;;9.61;39.61;101397.25;4919229;29;20617;-76
2021/10/04 10:52:47;;;;;;;4.20;3.17;;;;;;;9.37;40.14;101401.84;4903697;29;20486;-76
2021/10/04 10:55:23;;;;;;;3.70;3.08;;;;;;;9.35;39.50;101391.22;4903667;29;20492;-76
2021/10/04 10:57:52;;;;;;;4.40;3.35;;;;;;;9.59;39.95;101404.44;4919270;29;20126;-76
2021/10/04 11:00:24;;;;;;;6.07;3.08;;;;;;;9.74;39.57;101403.78;4903275;29;20483;-77
2021/10/04 11:03:20;;;;;;;3.85;2.50;;;;;;;9.58;38.87;101386.69;4934834;29;20055;-77
2021/10/04 11:05:49;;;;;;;5.13;2.90;;;;;;;9.54;39.17;101402.00;4903220;29;20043;-76
2021/10/04 11:08:47;;;;;;;5.30;3.13;;;;;;;9.30;39.61;101395.91;4918866;29;20063;-77
2021/10/04 11:11:24;;;;;;;5.03;2.97;;;;;;;9.03;38.95;101394.34;4902635;29;20039;-77
2021/10/04 11:14:02;;;;;;;3.50;2.50;;;;;;;9.07;40.39;101398.66;4886728;29;20055;-77
2021/10/04 11:16:30;;;;;;;5.95;2.60;;;;;;;9.40;40.39;101405.25;4887073;29;20059;-76
2021/10/04 11:18:57;;;;;;;3.17;2.20;;;;;;;9.62;38.12;101404.31;4902780;29;20423;-76
2021/10/04 11:21:28;;;;;;;5.95;2.80;;;;;;;9.54;38.97;101411.81;4917565;29;20060;-75
2021/10/04 11:24:19;;;;;;;4.30;2.63;;;;;;;9.52;37.87;101416.34;4902587;29;20047;-76
2021/10/04 11:26:45;;;;;;;3.38;2.50;;;;;;;9.26;37.63;101402.31;4918508;29;20141;-77
2021/10/04 11:29:13;;;;;;;4.68;2.88;;;;;;;9.25;37.51;101416.56;4887146;29;20492;-76
2021/10/04 11:31:45;;;;;;;3.58;2.60;;;;;;;9.07;37.80;101412.88;4902538;29;20078;-77
2021/10/04 11:34:15;;;;;;;3.58;2.30;;;;;;;9.30;37.94;101413.72;4888218;29;20568;-77